sensor_id;sensor_type;location;lat;lon;timestamp;temperature;humidity
40291;DHT22;26000;48.304;13.626;2022-10-19T00:01:13;15.00;99.90
40291;DHT22;26000;48.304;13.626;2022-10-19T00:03:40;15.00;99.90
40291;DHT22;26000;48.304;13.626;2022-10-19T00:06:19;15.00;99.90
40291;DHT22;26000;48.304;13.626;2022-10-19T00:08:50;15.00;99.90
40291;DHT22;26000;48.304;13.626;2022-10-19T00:11:17;14.80;99.90
40291;DHT22;26000;48.304;13.626;2022-10-19T00:13:43;14.80;99.90
40291;DHT22;26000;48.304;13.626;2022-10-19T00:16:13;14.80;99.90
40291;DHT22;26000;48.304;13.626;2022-10-19T00:18:40;14.80;99.90
40291;DHT22;26000;48.304;13.626;2022-10-19T00:21:08;14.80;99.90
40291;DHT22;26000;48.304;13.626;2022-10-19T00:23:36;14.80;99.90
40291;DHT22;26000;48.304;13.626;2022-10-19T00:26:01;14.80;99.90
40291;DHT22;26000;48.304;13.626;2022-10-19T00:28:28;14.80;99.90
40291;DHT22;26000;48.304;13.626;2022-10-19T00:30:53;14.90;99.90
40291;DHT22;26000;48.304;13.626;2022-10-19T00:33:19;14.90;99.90
40291;DHT22;26000;48.304;13.626;2022-10-19T00:35:51;14.90;99.90
40291;DHT22;26000;48.304;13.626;2022-10-19T00:38:18;14.90;99.90
40291;DHT22;26000;48.304;13.626;2022-10-19T00:40:44;14.90;99.90
40291;DHT22;26000;48.304;13.626;2022-10-19T00:43:14;14.90;99.90
40291;DHT22;26000;48.304;13.626;2022-10-19T00:45:40;14.90;99.90
40291;DHT22;26000;48.304;13.626;2022-10-19T00:48:08;14.90;99.90
40291;DHT22;26000;48.304;13.626;2022-10-19T00:50:33;14.90;99.90
40291;DHT22;26000;48.304;13.626;2022-10-19T00:52:59;14.90;99.90
40291;DHT22;26000;48.304;13.626;2022-10-19T00:55:25;14.90;99.90
40291;DHT22;26000;48.304;13.626;2022-10-19T00:57:51;14.90;99.90
40291;DHT22;26000;48.304;13.626;2022-10-19T01:00:16;14.90;99.90
40291;DHT22;26000;48.304;13.626;2022-10-19T01:02:42;15.00;99.90
40291;DHT22;26000;48.304;13.626;2022-10-19T01:05:08;15.00;99.90
40291;DHT22;26000;48.304;13.626;2022-10-19T01:07:34;14.90;99.90
40291;DHT22;26000;48.304;13.626;2022-10-19T01:10:00;14.90;99.90
40291;DHT22;26000;48.304;13.626;2022-10-19T01:12:50;14.90;99.90
40291;DHT22;26000;48.304;13.626;2022-10-19T01:15:37;15.00;99.90
40291;DHT22;26000;48.304;13.626;2022-10-19T01:18:17;14.90;99.90
40291;DHT22;26000;48.304;13.626;2022-10-19T01:40:17;14.90;99.90
40291;DHT22;26000;48.304;13.626;2022-10-19T01:43:17;14.90;99.90
40291;DHT22;26000;48.304;13.626;2022-10-19T01:45:59;14.90;99.90
40291;DHT22;26000;48.304;13.626;2022-10-19T01:48:34;14.90;99.90
40291;DHT22;26000;48.304;13.626;2022-10-19T01:51:16;14.90;99.90
40291;DHT22;26000;48.304;13.626;2022-10-19T01:53:46;14.90;99.90
40291;DHT22;26000;48.304;13.626;2022-10-19T01:56:16;14.90;99.90
40291;DHT22;26000;48.304;13.626;2022-10-19T01:58:44;14.90;99.90
40291;DHT22;26000;48.304;13.626;2022-10-19T02:01:12;14.80;99.90
40291;DHT22;26000;48.304;13.626;2022-10-19T02:03:40;14.90;99.90
40291;DHT22;26000;48.304;13.626;2022-10-19T02:06:07;14.90;99.90
40291;DHT22;26000;48.304;13.626;2022-10-19T02:08:39;14.90;99.90
40291;DHT22;26000;48.304;13.626;2022-10-19T02:11:06;14.90;99.90
40291;DHT22;26000;48.304;13.626;2022-10-19T02:13:32;14.90;99.90
40291;DHT22;26000;48.304;13.626;2022-10-19T02:16:00;14.90;99.90
40291;DHT22;26000;48.304;13.626;2022-10-19T02:18:32;14.90;99.90
40291;DHT22;26000;48.304;13.626;2022-10-19T02:21:01;14.90;99.90
40291;DHT22;26000;48.304;13.626;2022-10-19T02:23:27;14.90;99.90
40291;DHT22;26000;48.304;13.626;2022-10-19T02:25:53;14.90;99.90
40291;DHT22;26000;48.304;13.626;2022-10-19T02:28:20;14.90;99.90
40291;DHT22;26000;48.304;13.626;2022-10-19T02:30:46;15.00;99.90
40291;DHT22;26000;48.304;13.626;2022-10-19T02:33:12;14.90;99.90
40291;DHT22;26000;48.304;13.626;2022-10-19T02:35:38;14.90;99.90
40291;DHT22;26000;48.304;13.626;2022-10-19T02:38:05;14.90;99.90
40291;DHT22;26000;48.304;13.626;2022-10-19T02:40:35;14.90;99.90
40291;DHT22;26000;48.304;13.626;2022-10-19T02:43:05;14.90;99.90
40291;DHT22;26000;48.304;13.626;2022-10-19T02:45:40;14.90;99.90
40291;DHT22;26000;48.304;13.626;2022-10-19T02:48:11;15.00;99.90
40291;DHT22;26000;48.304;13.626;2022-10-19T02:50:43;15.00;99.90
40291;DHT22;26000;48.304;13.626;2022-10-19T02:53:08;15.00;99.90
40291;DHT22;26000;48.304;13.626;2022-10-19T02:55:34;15.00;99.90
40291;DHT22;26000;48.304;13.626;2022-10-19T02:58:00;15.00;99.90
40291;DHT22;26000;48.304;13.626;2022-10-19T03:00:25;15.00;99.90
40291;DHT22;26000;48.304;13.626;2022-10-19T03:02:51;15.00;99.90
40291;DHT22;26000;48.304;13.626;2022-10-19T03:05:17;15.00;99.90
40291;DHT22;26000;48.304;13.626;2022-10-19T03:07:42;15.00;99.90
40291;DHT22;26000;48.304;13.626;2022-10-19T03:10:08;15.00;99.90
40291;DHT22;26000;48.304;13.626;2022-10-19T03:12:33;15.00;99.90
40291;DHT22;26000;48.304;13.626;2022-10-19T03:14:59;15.00;99.90
40291;DHT22;26000;48.304;13.626;2022-10-19T03:17:25;15.00;99.90
40291;DHT22;26000;48.304;13.626;2022-10-19T03:19:50;15.00;99.90
40291;DHT22;26000;48.304;13.626;2022-10-19T03:22:16;15.00;99.90
40291;DHT22;26000;48.304;13.626;2022-10-19T03:24:41;15.00;99.90
40291;DHT22;26000;48.304;13.626;2022-10-19T03:27:07;15.00;99.90
40291;DHT22;26000;48.304;13.626;2022-10-19T03:29:32;15.00;99.90
40291;DHT22;26000;48.304;13.626;2022-10-19T03:31:58;15.00;99.90
40291;DHT22;26000;48.304;13.626;2022-10-19T03:34:24;15.00;99.90
40291;DHT22;26000;48.304;13.626;2022-10-19T03:36:49;15.00;99.90
40291;DHT22;26000;48.304;13.626;2022-10-19T03:39:16;15.00;99.90
40291;DHT22;26000;48.304;13.626;2022-10-19T03:41:42;15.00;99.90
40291;DHT22;26000;48.304;13.626;2022-10-19T03:44:09;15.10;99.90
40291;DHT22;26000;48.304;13.626;2022-10-19T03:46:35;15.00;99.90
40291;DHT22;26000;48.304;13.626;2022-10-19T03:49:02;15.00;99.90
40291;DHT22;26000;48.304;13.626;2022-10-19T03:51:29;15.00;99.90
40291;DHT22;26000;48.304;13.626;2022-10-19T03:53:58;15.10;99.90
40291;DHT22;26000;48.304;13.626;2022-10-19T03:56:24;15.10;99.90
40291;DHT22;26000;48.304;13.626;2022-10-19T03:58:52;15.00;99.90
40291;DHT22;26000;48.304;13.626;2022-10-19T04:01:21;15.00;99.90
40291;DHT22;26000;48.304;13.626;2022-10-19T04:03:47;15.00;99.90
40291;DHT22;26000;48.304;13.626;2022-10-19T04:06:17;15.00;99.90
40291;DHT22;26000;48.304;13.626;2022-10-19T04:08:43;15.10;99.90
40291;DHT22;26000;48.304;13.626;2022-10-19T04:11:14;15.00;99.90
40291;DHT22;26000;48.304;13.626;2022-10-19T04:13:40;15.10;99.90
40291;DHT22;26000;48.304;13.626;2022-10-19T04:16:06;15.10;99.90
40291;DHT22;26000;48.304;13.626;2022-10-19T04:18:31;15.00;99.90
40291;DHT22;26000;48.304;13.626;2022-10-19T04:20:58;15.00;99.90
40291;DHT22;26000;48.304;13.626;2022-10-19T04:23:29;15.10;99.90
40291;DHT22;26000;48.304;13.626;2022-10-19T04:25:59;15.00;99.90
40291;DHT22;26000;48.304;13.626;2022-10-19T04:28:25;15.00;99.90
40291;DHT22;26000;48.304;13.626;2022-10-19T04:30:51;15.00;99.90
40291;DHT22;26000;48.304;13.626;2022-10-19T04:33:16;15.00;99.90
40291;DHT22;26000;48.304;13.626;2022-10-19T04:35:42;15.00;99.90
40291;DHT22;26000;48.304;13.626;2022-10-19T04:38:08;15.00;99.90
40291;DHT22;26000;48.304;13.626;2022-10-19T04:40:34;15.00;99.90
40291;DHT22;26000;48.304;13.626;2022-10-19T04:43:00;15.00;99.90
40291;DHT22;26000;48.304;13.626;2022-10-19T04:45:26;15.00;99.90
40291;DHT22;26000;48.304;13.626;2022-10-19T04:47:53;15.00;99.90
40291;DHT22;26000;48.304;13.626;2022-10-19T04:50:21;15.00;99.90
40291;DHT22;26000;48.304;13.626;2022-10-19T04:52:46;15.00;99.90
40291;DHT22;26000;48.304;13.626;2022-10-19T04:55:12;15.00;99.90
40291;DHT22;26000;48.304;13.626;2022-10-19T04:57:38;15.00;99.90
40291;DHT22;26000;48.304;13.626;2022-10-19T05:00:04;15.00;99.90
40291;DHT22;26000;48.304;13.626;2022-10-19T05:02:30;15.00;99.90
40291;DHT22;26000;48.304;13.626;2022-10-19T05:04:55;15.00;99.90
40291;DHT22;26000;48.304;13.626;2022-10-19T05:07:21;15.00;99.90
40291;DHT22;26000;48.304;13.626;2022-10-19T05:09:46;15.00;99.90
40291;DHT22;26000;48.304;13.626;2022-10-19T05:12:12;15.00;99.90
40291;DHT22;26000;48.304;13.626;2022-10-19T05:14:37;15.00;99.90
40291;DHT22;26000;48.304;13.626;2022-10-19T05:17:03;15.10;99.90
40291;DHT22;26000;48.304;13.626;2022-10-19T05:19:28;15.00;99.90
40291;DHT22;26000;48.304;13.626;2022-10-19T05:21:54;15.10;99.90
40291;DHT22;26000;48.304;13.626;2022-10-19T05:24:19;15.00;99.90
40291;DHT22;26000;48.304;13.626;2022-10-19T05:26:45;15.00;99.90
40291;DHT22;26000;48.304;13.626;2022-10-19T05:29:12;15.00;99.90
40291;DHT22;26000;48.304;13.626;2022-10-19T05:31:38;15.00;99.90
40291;DHT22;26000;48.304;13.626;2022-10-19T05:34:03;15.00;99.90
40291;DHT22;26000;48.304;13.626;2022-10-19T05:36:31;15.00;99.90
40291;DHT22;26000;48.304;13.626;2022-10-19T05:39:33;15.00;99.90
40291;DHT22;26000;48.304;13.626;2022-10-19T05:41:52;15.00;99.90
40291;DHT22;26000;48.304;13.626;2022-10-19T05:44:22;15.00;99.90
40291;DHT22;26000;48.304;13.626;2022-10-19T05:46:49;15.00;99.90
40291;DHT22;26000;48.304;13.626;2022-10-19T05:49:17;15.00;99.90
40291;DHT22;26000;48.304;13.626;2022-10-19T05:51:43;15.00;99.90
40291;DHT22;26000;48.304;13.626;2022-10-19T05:54:10;15.00;99.90
40291;DHT22;26000;48.304;13.626;2022-10-19T05:56:36;15.00;99.90
40291;DHT22;26000;48.304;13.626;2022-10-19T05:59:04;15.00;99.90
40291;DHT22;26000;48.304;13.626;2022-10-19T06:01:31;15.00;99.90
40291;DHT22;26000;48.304;13.626;2022-10-19T06:03:58;15.10;99.90
40291;DHT22;26000;48.304;13.626;2022-10-19T06:06:25;15.10;99.90
40291;DHT22;26000;48.304;13.626;2022-10-19T06:08:52;15.00;99.90
40291;DHT22;26000;48.304;13.626;2022-10-19T06:11:21;15.00;99.90
40291;DHT22;26000;48.304;13.626;2022-10-19T06:13:48;15.00;99.90
40291;DHT22;26000;48.304;13.626;2022-10-19T06:16:16;14.90;99.90
40291;DHT22;26000;48.304;13.626;2022-10-19T06:18:42;14.90;99.90
40291;DHT22;26000;48.304;13.626;2022-10-19T06:21:14;14.90;99.90
40291;DHT22;26000;48.304;13.626;2022-10-19T06:23:40;14.90;99.90
40291;DHT22;26000;48.304;13.626;2022-10-19T06:26:12;14.90;99.90
40291;DHT22;26000;48.304;13.626;2022-10-19T06:28:40;14.90;99.90
40291;DHT22;26000;48.304;13.626;2022-10-19T06:31:07;14.90;99.90
40291;DHT22;26000;48.304;13.626;2022-10-19T06:33:33;14.90;99.90
40291;DHT22;26000;48.304;13.626;2022-10-19T06:36:10;14.90;99.90
40291;DHT22;26000;48.304;13.626;2022-10-19T06:38:36;14.90;99.90
40291;DHT22;26000;48.304;13.626;2022-10-19T06:41:02;14.90;99.90
40291;DHT22;26000;48.304;13.626;2022-10-19T06:43:28;14.90;99.90
40291;DHT22;26000;48.304;13.626;2022-10-19T06:45:54;14.90;99.90
40291;DHT22;26000;48.304;13.626;2022-10-19T06:48:19;14.90;99.90
40291;DHT22;26000;48.304;13.626;2022-10-19T06:50:45;14.80;99.90
40291;DHT22;26000;48.304;13.626;2022-10-19T06:53:11;14.80;99.90
40291;DHT22;26000;48.304;13.626;2022-10-19T06:55:36;14.70;99.90
40291;DHT22;26000;48.304;13.626;2022-10-19T06:58:02;14.80;99.90
40291;DHT22;26000;48.304;13.626;2022-10-19T07:00:28;14.80;99.90
40291;DHT22;26000;48.304;13.626;2022-10-19T07:02:54;14.90;99.90
40291;DHT22;26000;48.304;13.626;2022-10-19T07:05:20;14.90;99.90
40291;DHT22;26000;48.304;13.626;2022-10-19T07:07:45;15.00;99.90
40291;DHT22;26000;48.304;13.626;2022-10-19T07:10:11;15.00;99.90
40291;DHT22;26000;48.304;13.626;2022-10-19T07:12:37;15.00;99.90
40291;DHT22;26000;48.304;13.626;2022-10-19T07:15:03;15.10;99.90
40291;DHT22;26000;48.304;13.626;2022-10-19T07:17:29;15.20;99.90
40291;DHT22;26000;48.304;13.626;2022-10-19T07:19:54;15.30;99.90
40291;DHT22;26000;48.304;13.626;2022-10-19T07:22:20;15.30;99.90
40291;DHT22;26000;48.304;13.626;2022-10-19T07:24:46;15.30;99.90
40291;DHT22;26000;48.304;13.626;2022-10-19T07:27:11;15.30;99.90
40291;DHT22;26000;48.304;13.626;2022-10-19T07:29:37;15.40;99.90
40291;DHT22;26000;48.304;13.626;2022-10-19T07:32:03;15.40;99.90
40291;DHT22;26000;48.304;13.626;2022-10-19T07:34:28;15.40;99.90
40291;DHT22;26000;48.304;13.626;2022-10-19T07:36:54;15.30;99.90
40291;DHT22;26000;48.304;13.626;2022-10-19T07:39:20;15.30;99.90
40291;DHT22;26000;48.304;13.626;2022-10-19T07:41:45;15.30;99.90
40291;DHT22;26000;48.304;13.626;2022-10-19T07:44:12;15.20;99.90
40291;DHT22;26000;48.304;13.626;2022-10-19T07:46:38;15.20;99.90
40291;DHT22;26000;48.304;13.626;2022-10-19T07:49:06;15.20;99.90
40291;DHT22;26000;48.304;13.626;2022-10-19T07:51:34;15.20;99.90
40291;DHT22;26000;48.304;13.626;2022-10-19T07:53:59;15.20;99.90
40291;DHT22;26000;48.304;13.626;2022-10-19T07:56:27;15.30;99.90
40291;DHT22;26000;48.304;13.626;2022-10-19T07:58:54;15.30;99.90
40291;DHT22;26000;48.304;13.626;2022-10-19T08:01:23;15.30;99.90
40291;DHT22;26000;48.304;13.626;2022-10-19T08:03:51;15.30;99.90
40291;DHT22;26000;48.304;13.626;2022-10-19T08:06:18;15.40;99.90
40291;DHT22;26000;48.304;13.626;2022-10-19T08:08:45;15.50;99.90
40291;DHT22;26000;48.304;13.626;2022-10-19T08:11:25;15.50;99.90
40291;DHT22;26000;48.304;13.626;2022-10-19T08:13:52;15.60;99.90
40291;DHT22;26000;48.304;13.626;2022-10-19T08:16:31;15.60;99.90
40291;DHT22;26000;48.304;13.626;2022-10-19T08:18:59;15.60;99.90
40291;DHT22;26000;48.304;13.626;2022-10-19T08:21:26;15.60;99.90
40291;DHT22;26000;48.304;13.626;2022-10-19T08:23:52;15.60;99.90
40291;DHT22;26000;48.304;13.626;2022-10-19T08:26:18;15.70;99.90
40291;DHT22;26000;48.304;13.626;2022-10-19T08:28:44;15.70;99.90
40291;DHT22;26000;48.304;13.626;2022-10-19T08:31:12;15.70;99.90
40291;DHT22;26000;48.304;13.626;2022-10-19T08:33:38;15.70;99.90
40291;DHT22;26000;48.304;13.626;2022-10-19T08:36:05;15.70;99.90
40291;DHT22;26000;48.304;13.626;2022-10-19T08:38:31;15.80;99.90
40291;DHT22;26000;48.304;13.626;2022-10-19T08:40:57;15.80;99.90
40291;DHT22;26000;48.304;13.626;2022-10-19T08:43:37;15.80;99.90
40291;DHT22;26000;48.304;13.626;2022-10-19T08:46:26;15.80;99.90
40291;DHT22;26000;48.304;13.626;2022-10-19T08:48:58;15.80;99.90
40291;DHT22;26000;48.304;13.626;2022-10-19T08:51:24;15.80;99.90
40291;DHT22;26000;48.304;13.626;2022-10-19T08:53:54;15.70;99.90
40291;DHT22;26000;48.304;13.626;2022-10-19T08:56:35;15.80;99.90
40291;DHT22;26000;48.304;13.626;2022-10-19T08:59:16;15.70;99.90
40291;DHT22;26000;48.304;13.626;2022-10-19T09:02:01;15.80;99.90
40291;DHT22;26000;48.304;13.626;2022-10-19T09:04:57;15.70;99.90
40291;DHT22;26000;48.304;13.626;2022-10-19T09:09:54;15.70;99.90
40291;DHT22;26000;48.304;13.626;2022-10-19T09:12:36;15.70;99.90
40291;DHT22;26000;48.304;13.626;2022-10-19T09:15:10;15.70;99.90
40291;DHT22;26000;48.304;13.626;2022-10-19T09:17:37;15.70;99.90
40291;DHT22;26000;48.304;13.626;2022-10-19T09:20:25;15.70;99.90
40291;DHT22;26000;48.304;13.626;2022-10-19T09:23:02;15.80;99.90
40291;DHT22;26000;48.304;13.626;2022-10-19T09:25:29;15.80;99.90
40291;DHT22;26000;48.304;13.626;2022-10-19T09:30:56;15.80;99.90
40291;DHT22;26000;48.304;13.626;2022-10-19T09:33:27;15.90;99.90
40291;DHT22;26000;48.304;13.626;2022-10-19T09:35:56;15.90;99.90
40291;DHT22;26000;48.304;13.626;2022-10-19T09:38:25;15.90;99.90
40291;DHT22;26000;48.304;13.626;2022-10-19T09:40:51;16.00;99.90
40291;DHT22;26000;48.304;13.626;2022-10-19T09:43:17;16.00;99.90
40291;DHT22;26000;48.304;13.626;2022-10-19T09:45:54;16.00;99.90
40291;DHT22;26000;48.304;13.626;2022-10-19T09:48:29;16.00;99.90
40291;DHT22;26000;48.304;13.626;2022-10-19T09:51:01;16.00;99.90
40291;DHT22;26000;48.304;13.626;2022-10-19T09:53:28;16.00;99.90
40291;DHT22;26000;48.304;13.626;2022-10-19T09:56:05;16.10;99.90
40291;DHT22;26000;48.304;13.626;2022-10-19T09:58:32;16.20;99.90
40291;DHT22;26000;48.304;13.626;2022-10-19T10:00:59;16.20;99.90
40291;DHT22;26000;48.304;13.626;2022-10-19T10:03:36;16.00;99.90
40291;DHT22;26000;48.304;13.626;2022-10-19T10:06:15;16.10;99.90
40291;DHT22;26000;48.304;13.626;2022-10-19T10:08:47;16.00;99.90
40291;DHT22;26000;48.304;13.626;2022-10-19T10:11:33;16.10;99.90
40291;DHT22;26000;48.304;13.626;2022-10-19T10:14:06;16.10;99.90
40291;DHT22;26000;48.304;13.626;2022-10-19T10:16:37;16.20;99.90
40291;DHT22;26000;48.304;13.626;2022-10-19T10:19:06;16.20;99.90
40291;DHT22;26000;48.304;13.626;2022-10-19T10:21:49;16.30;99.90
40291;DHT22;26000;48.304;13.626;2022-10-19T10:24:17;16.50;99.90
40291;DHT22;26000;48.304;13.626;2022-10-19T10:26:46;16.60;99.90
40291;DHT22;26000;48.304;13.626;2022-10-19T10:32:26;16.60;99.90
40291;DHT22;26000;48.304;13.626;2022-10-19T10:35:02;16.50;99.90
40291;DHT22;26000;48.304;13.626;2022-10-19T10:37:42;16.60;99.90
40291;DHT22;26000;48.304;13.626;2022-10-19T10:40:25;16.70;99.90
40291;DHT22;26000;48.304;13.626;2022-10-19T10:42:53;16.70;99.90
40291;DHT22;26000;48.304;13.626;2022-10-19T10:45:36;16.60;99.90
40291;DHT22;26000;48.304;13.626;2022-10-19T10:48:19;16.60;99.90
40291;DHT22;26000;48.304;13.626;2022-10-19T10:50:48;16.60;99.90
40291;DHT22;26000;48.304;13.626;2022-10-19T10:53:39;16.60;99.90
40291;DHT22;26000;48.304;13.626;2022-10-19T10:56:18;16.60;99.90
40291;DHT22;26000;48.304;13.626;2022-10-19T11:01:18;16.80;99.90
40291;DHT22;26000;48.304;13.626;2022-10-19T11:03:53;16.80;99.90
40291;DHT22;26000;48.304;13.626;2022-10-19T11:06:21;16.80;99.90
40291;DHT22;26000;48.304;13.626;2022-10-19T11:09:02;16.90;99.90
40291;DHT22;26000;48.304;13.626;2022-10-19T11:11:37;16.90;99.90
40291;DHT22;26000;48.304;13.626;2022-10-19T11:14:22;16.90;99.90
40291;DHT22;26000;48.304;13.626;2022-10-19T11:16:51;16.90;99.90
40291;DHT22;26000;48.304;13.626;2022-10-19T11:19:28;16.90;99.90
40291;DHT22;26000;48.304;13.626;2022-10-19T11:22:07;16.90;99.90
40291;DHT22;26000;48.304;13.626;2022-10-19T11:35:10;16.90;99.90
40291;DHT22;26000;48.304;13.626;2022-10-19T11:43:29;17.00;99.90
40291;DHT22;26000;48.304;13.626;2022-10-19T11:49:05;17.20;99.90
40291;DHT22;26000;48.304;13.626;2022-10-19T11:51:54;17.30;99.90
40291;DHT22;26000;48.304;13.626;2022-10-19T11:56:56;17.20;99.90
40291;DHT22;26000;48.304;13.626;2022-10-19T12:05:30;17.50;99.90
40291;DHT22;26000;48.304;13.626;2022-10-19T12:08:28;17.60;99.90
40291;DHT22;26000;48.304;13.626;2022-10-19T12:11:21;17.60;99.90
40291;DHT22;26000;48.304;13.626;2022-10-19T12:13:56;17.80;99.90
40291;DHT22;26000;48.304;13.626;2022-10-19T12:16:32;17.70;99.90
40291;DHT22;26000;48.304;13.626;2022-10-19T12:19:02;17.60;99.90
40291;DHT22;26000;48.304;13.626;2022-10-19T12:21:40;17.60;99.90
40291;DHT22;26000;48.304;13.626;2022-10-19T12:24:19;17.70;99.90
40291;DHT22;26000;48.304;13.626;2022-10-19T12:26:46;17.60;99.90
40291;DHT22;26000;48.304;13.626;2022-10-19T12:29:20;17.60;99.90
40291;DHT22;26000;48.304;13.626;2022-10-19T12:31:47;17.70;99.90
40291;DHT22;26000;48.304;13.626;2022-10-19T12:37:02;17.80;99.90
40291;DHT22;26000;48.304;13.626;2022-10-19T12:42:16;17.80;99.90
40291;DHT22;26000;48.304;13.626;2022-10-19T12:47:23;17.60;99.90
40291;DHT22;26000;48.304;13.626;2022-10-19T12:49:53;17.60;99.90
40291;DHT22;26000;48.304;13.626;2022-10-19T12:52:55;17.60;99.90
40291;DHT22;26000;48.304;13.626;2022-10-19T12:55:28;17.60;99.90
40291;DHT22;26000;48.304;13.626;2022-10-19T12:58:13;17.50;99.90
40291;DHT22;26000;48.304;13.626;2022-10-19T13:00:59;17.50;99.90
40291;DHT22;26000;48.304;13.626;2022-10-19T13:03:30;17.50;99.90
40291;DHT22;26000;48.304;13.626;2022-10-19T13:06:00;17.50;99.90
40291;DHT22;26000;48.304;13.626;2022-10-19T13:08:29;17.50;99.90
40291;DHT22;26000;48.304;13.626;2022-10-19T13:11:10;17.60;99.90
40291;DHT22;26000;48.304;13.626;2022-10-19T13:16:57;17.80;99.90
40291;DHT22;26000;48.304;13.626;2022-10-19T13:19:23;17.80;99.90
40291;DHT22;26000;48.304;13.626;2022-10-19T13:29:38;17.60;99.90
40291;DHT22;26000;48.304;13.626;2022-10-19T13:43:25;17.60;99.90
40291;DHT22;26000;48.304;13.626;2022-10-19T13:46:08;17.60;99.90
40291;DHT22;26000;48.304;13.626;2022-10-19T13:48:53;17.60;99.90
40291;DHT22;26000;48.304;13.626;2022-10-19T13:54:31;17.60;99.90
40291;DHT22;26000;48.304;13.626;2022-10-19T14:11:20;17.50;99.90
40291;DHT22;26000;48.304;13.626;2022-10-19T14:16:59;17.60;99.90
40291;DHT22;26000;48.304;13.626;2022-10-19T14:19:41;17.70;99.90
40291;DHT22;26000;48.304;13.626;2022-10-19T14:25:06;17.50;99.90
40291;DHT22;26000;48.304;13.626;2022-10-19T14:27:33;17.50;99.90
40291;DHT22;26000;48.304;13.626;2022-10-19T14:29:59;17.50;99.90
40291;DHT22;26000;48.304;13.626;2022-10-19T14:32:27;17.50;99.90
40291;DHT22;26000;48.304;13.626;2022-10-19T14:34:53;17.50;99.90
40291;DHT22;26000;48.304;13.626;2022-10-19T14:37:23;17.40;99.90
40291;DHT22;26000;48.304;13.626;2022-10-19T14:40:04;17.40;99.90
40291;DHT22;26000;48.304;13.626;2022-10-19T14:42:57;17.40;99.90
40291;DHT22;26000;48.304;13.626;2022-10-19T14:45:27;17.40;99.90
40291;DHT22;26000;48.304;13.626;2022-10-19T14:48:00;17.20;99.90
40291;DHT22;26000;48.304;13.626;2022-10-19T14:53:03;17.20;99.90
40291;DHT22;26000;48.304;13.626;2022-10-19T14:55:37;17.20;99.90
40291;DHT22;26000;48.304;13.626;2022-10-19T14:58:09;17.10;99.90
40291;DHT22;26000;48.304;13.626;2022-10-19T15:00:36;17.10;99.90
40291;DHT22;26000;48.304;13.626;2022-10-19T15:03:06;17.10;99.90
40291;DHT22;26000;48.304;13.626;2022-10-19T15:05:34;17.10;99.90
40291;DHT22;26000;48.304;13.626;2022-10-19T15:08:16;17.00;99.90
40291;DHT22;26000;48.304;13.626;2022-10-19T15:10:45;17.00;99.90
40291;DHT22;26000;48.304;13.626;2022-10-19T15:13:24;16.90;99.90
40291;DHT22;26000;48.304;13.626;2022-10-19T15:15:52;16.90;99.90
40291;DHT22;26000;48.304;13.626;2022-10-19T15:18:21;16.80;99.90
40291;DHT22;26000;48.304;13.626;2022-10-19T15:21:03;16.80;99.90
40291;DHT22;26000;48.304;13.626;2022-10-19T15:23:43;16.80;99.90
40291;DHT22;26000;48.304;13.626;2022-10-19T15:26:16;16.80;99.90
40291;DHT22;26000;48.304;13.626;2022-10-19T15:28:43;16.70;99.90
40291;DHT22;26000;48.304;13.626;2022-10-19T15:31:25;16.70;99.90
40291;DHT22;26000;48.304;13.626;2022-10-19T15:33:59;16.60;99.90
40291;DHT22;26000;48.304;13.626;2022-10-19T15:36:27;16.50;99.90
40291;DHT22;26000;48.304;13.626;2022-10-19T15:39:06;16.50;99.90
40291;DHT22;26000;48.304;13.626;2022-10-19T15:41:39;16.40;99.90
40291;DHT22;26000;48.304;13.626;2022-10-19T15:44:26;16.40;99.90
40291;DHT22;26000;48.304;13.626;2022-10-19T15:52:19;16.10;99.90
40291;DHT22;26000;48.304;13.626;2022-10-19T15:54:49;16.10;99.90
40291;DHT22;26000;48.304;13.626;2022-10-19T15:59:54;16.00;99.90
40291;DHT22;26000;48.304;13.626;2022-10-19T16:02:20;15.90;99.90
40291;DHT22;26000;48.304;13.626;2022-10-19T16:04:46;15.80;99.90
40291;DHT22;26000;48.304;13.626;2022-10-19T16:07:26;15.70;99.90
40291;DHT22;26000;48.304;13.626;2022-10-19T16:09:53;15.60;99.90
40291;DHT22;26000;48.304;13.626;2022-10-19T16:12:20;15.50;99.90
40291;DHT22;26000;48.304;13.626;2022-10-19T16:14:46;15.40;99.90
40291;DHT22;26000;48.304;13.626;2022-10-19T16:17:12;15.30;99.90
40291;DHT22;26000;48.304;13.626;2022-10-19T16:19:38;15.30;99.90
40291;DHT22;26000;48.304;13.626;2022-10-19T16:22:04;15.20;99.90
40291;DHT22;26000;48.304;13.626;2022-10-19T16:24:29;15.10;99.90
40291;DHT22;26000;48.304;13.626;2022-10-19T16:26:55;15.10;99.90
40291;DHT22;26000;48.304;13.626;2022-10-19T16:29:21;15.10;99.90
40291;DHT22;26000;48.304;13.626;2022-10-19T16:31:47;15.00;99.90
40291;DHT22;26000;48.304;13.626;2022-10-19T16:34:12;14.90;99.90
40291;DHT22;26000;48.304;13.626;2022-10-19T16:36:38;14.80;99.90
40291;DHT22;26000;48.304;13.626;2022-10-19T16:39:03;14.80;99.90
40291;DHT22;26000;48.304;13.626;2022-10-19T16:41:29;14.70;99.90
40291;DHT22;26000;48.304;13.626;2022-10-19T16:43:55;14.60;99.90
40291;DHT22;26000;48.304;13.626;2022-10-19T16:46:22;14.60;99.90
40291;DHT22;26000;48.304;13.626;2022-10-19T16:48:49;14.60;99.90
40291;DHT22;26000;48.304;13.626;2022-10-19T16:51:33;14.60;99.90
40291;DHT22;26000;48.304;13.626;2022-10-19T16:54:01;14.50;99.90
40291;DHT22;26000;48.304;13.626;2022-10-19T16:56:29;14.40;99.90
40291;DHT22;26000;48.304;13.626;2022-10-19T16:58:56;14.40;99.90
40291;DHT22;26000;48.304;13.626;2022-10-19T17:01:22;14.30;99.90
40291;DHT22;26000;48.304;13.626;2022-10-19T17:03:49;14.20;99.90
40291;DHT22;26000;48.304;13.626;2022-10-19T17:06:15;14.30;99.90
40291;DHT22;26000;48.304;13.626;2022-10-19T17:08:41;14.20;99.90
40291;DHT22;26000;48.304;13.626;2022-10-19T17:11:16;14.20;99.90
40291;DHT22;26000;48.304;13.626;2022-10-19T17:13:44;14.20;99.90
40291;DHT22;26000;48.304;13.626;2022-10-19T17:16:11;14.10;99.90
40291;DHT22;26000;48.304;13.626;2022-10-19T17:18:37;14.10;99.90
40291;DHT22;26000;48.304;13.626;2022-10-19T17:21:05;13.90;99.90
40291;DHT22;26000;48.304;13.626;2022-10-19T17:23:31;14.00;99.90
40291;DHT22;26000;48.304;13.626;2022-10-19T17:25:57;14.00;99.90
40291;DHT22;26000;48.304;13.626;2022-10-19T17:28:22;13.90;99.90
40291;DHT22;26000;48.304;13.626;2022-10-19T17:30:49;13.80;99.90
40291;DHT22;26000;48.304;13.626;2022-10-19T17:33:16;13.80;99.90
40291;DHT22;26000;48.304;13.626;2022-10-19T17:35:42;13.80;99.90